Terminal Aerodrome Forecast
Issued by NWS

Home | Current Version | Previous Version | Text Only | Print | Product List | Glossary On
Versions: 1 2 3 4 5 6 7 8 9 10 11 12 13 14 15 16 17 18 19 20 21 22 23 24 25 26 27 28 29 30
000
FTUS44 KLIX 040550
TAFHDC
TAF
KHDC 040550Z 0406/0506 12007KT P6SM -RA OVC018
     FM040900 10006KT 4SM -SHRA OVC008
      TEMPO 0409/0411 2SM TSRA OVC005CB
     FM041200 05004KT 3SM -RA OVC006
     FM042100 33006KT 5SM SHRA OVC015
     FM050200 01005KT 5SM SHRA OVC008=

USA.gov is the U.S. government's official web portal to all federal, state and local government web resources and services.